Flight Track Log - Related Links

Times and Time Zones

All times are in EDT time to prevent confusion due to time zone crossing. See the FFT720 flight status page for this flight to view local times or setup timezone preferences in your user account.

Time Position Orientation Groundspeed Altitude Reporting Facility
EDT Latitude Longitude Course Direction KTS MPH feet Rate Location/Type
Sun 07:32:44 PM 39.8833 -104.5833 72° East 197 227 6,700  Level Denver TRACON
Sun 07:33:44 PM 39.8833 -104.5167 90° East 227 261 7,500 1,105 Climbing Denver TRACON
Sun 07:34:38 PM 39.8667 -104.4167 102° East 285 328 8,800 1,793 Climbing Denver TRACON
Sun 07:35:11 PM 39.8733 -104.3583 82° East 291 335 10,100 1,516 Climbing Denver Center
Sun 07:36:13 PM 39.8736 -104.2422 90° East 325 374 11,200 1,452 Climbing Denver Center
Sun 07:37:15 PM 39.8722 -104.0961 91° East 372 428 13,100 1,935 Climbing Denver Center
Sun 07:38:00 PM 39.8809 -103.7432 72° East  Level FlightAware Approximate
Sun 07:38:17 PM 39.8714 -103.9547 90° East 390 449 15,200  Level Denver Center
Sun 07:39:19 PM 39.8789 -103.7989 86° East 403 464 17,200 1,645 Climbing Denver Center
Sun 07:40:21 PM 39.8914 -103.6608 83° East 394 453 18,600 1,742 Climbing Denver Center
Sun 07:41:23 PM 39.9100 -103.4939 82° East 413 475 20,800 1,839 Climbing Denver Center
Sun 07:42:25 PM 39.9272 -103.3453 81° East 421 484 22,400 1,548 Climbing Denver Center
Sun 07:43:27 PM 39.9431 -103.2000 82° East 423 487 24,000 1,210 Climbing Denver Center
Sun 07:44:29 PM 39.9606 -103.0283 82° East 431 496 24,900 823 Climbing Denver Center
Sun 07:45:31 PM 39.9750 -102.8708 83° East 455 524 25,700 816 Climbing Denver Center
Sun 07:46:34 PM 39.9936 -102.6867 82° East 461 531 26,600 1,008 Climbing Denver Center
Sun 07:47:36 PM 40.0083 -102.5250 83° East 467 537 27,800 1,171 Climbing Denver Center
Sun 07:48:37 PM 40.0233 -102.3672 83° East 460 529 29,000 1,306 Climbing Denver Center
Sun 07:49:40 PM 40.0397 -102.1844 83° East 455 524 30,500 1,344 Climbing Denver Center
Sun 07:50:42 PM 40.0561 -102.0053 83° East 447 514 31,800 1,113 Climbing Denver Center
Sun 07:51:44 PM 40.0700 -101.8542 83° East 441 507 32,800 919 Climbing Denver Center
Sun 07:52:46 PM 40.0853 -101.6789 83° East 437 503 33,700 823 Climbing Denver Center
Sun 07:53:48 PM 40.0986 -101.5286 83° East 437 503 34,500 629 Climbing Denver Center
Sun 07:54:50 PM 40.1131 -101.3536 84° East 435 501 35,000 242 Climbing Denver Center
Sun 07:55:52 PM 40.1250 -101.2053 84° East 431 496 35,000  Level Denver Center
Sun 07:56:54 PM 40.1394 -101.0317 84° East 433 498 35,000  Level Denver Center
Sun 07:57:55 PM 40.1511 -100.8819 84° East 435 501 35,000  Level Denver Center
Sun 07:58:57 PM 40.1656 -100.7100 84° East 431 496 35,000  Level Denver Center
Sun 07:59:59 PM 40.1772 -100.5592 84° East 434 499 35,000  Level Denver Center
Sun 08:01:01 PM 40.1906 -100.3861 84° East 432 497 35,000  Level Denver Center
Sun 08:02:03 PM 40.2008 -100.2369 85° East 432 497 35,000  Level Denver Center
Sun 08:03:05 PM 40.2147 -100.0625 84° East 434 499 35,000  Level Denver Center
Sun 08:04:07 PM 40.2250 -99.9119 85° East 434 499 35,000  Level Denver Center
Sun 08:05:09 PM 40.2367 -99.7392 85° East 435 501 35,000  Level Denver Center
Sun 08:06:11 PM 40.2475 -99.5806 85° East 438 504 35,000  Level Denver Center
Sun 08:07:13 PM 40.2581 -99.4242 85° East 434 499 35,000  Level Denver Center
Sun 08:08:14 PM 40.2692 -99.2678 85° East 433 498 35,000  Level Denver Center
Sun 08:09:28 PM 40.2781 -99.1100 86° East 435 501 35,000  Level Denver Center
Sun 08:10:31 PM 40.2903 -98.9219 85° East 435 501 35,000 339 Level Denver Center
Sun 08:11:32 PM 40.3019 -98.7331 85° East 436 502 35,700 605 Climbing Denver Center
Sun 08:12:30 PM 40.3097 -98.6086 85° East 435 501 36,200 605 Climbing Minneapolis Center
Sun 08:13:31 PM 40.3208 -98.4211 85° East 434 499 36,900 390 Climbing Minneapolis Center
Sun 08:14:33 PM 40.3294 -98.2647 86° East 433 498 37,000 49 Climbing Minneapolis Center
Sun 08:15:34 PM 40.3389 -98.1086 85° East 432 497 37,000  Level Minneapolis Center
Sun 08:16:36 PM 40.3453 -97.9864 86° East 429 494 37,000  Level Minneapolis Center
Sun 08:17:37 PM 40.3547 -97.8011 86° East 427 491 37,000  Level Minneapolis Center
Sun 08:18:39 PM 40.3628 -97.6475 86° East 425 489 37,000  Level Minneapolis Center
Sun 08:19:41 PM 40.3708 -97.4950 86° East 423 487 37,000  Level Minneapolis Center
Sun 08:20:43 PM 40.3792 -97.3414 86° East 423 487 37,000  Level Minneapolis Center
Sun 08:21:44 PM 40.3858 -97.1875 87° East 421 484 37,000  Level Minneapolis Center
Sun 08:22:46 PM 40.3944 -97.0008 86° East 425 489 37,000  Level Minneapolis Center
Sun 08:23:47 PM 40.4008 -96.8478 87° East 424 488 37,000  Level Minneapolis Center
Sun 08:24:49 PM 40.4069 -96.6956 87° East 422 486 37,000  Level Minneapolis Center
Sun 08:25:50 PM 40.4136 -96.5450 87° East 420 483 37,000  Level Minneapolis Center
Sun 08:26:52 PM 40.4208 -96.3950 86° East 417 480 37,000  Level Minneapolis Center
Sun 08:27:54 PM 40.4258 -96.2464 87° East 415 478 37,000  Level Minneapolis Center
Sun 08:28:55 PM 40.4319 -96.0961 87° East 414 476 37,000  Level Minneapolis Center
Sun 08:29:57 PM 40.4389 -95.9158 87° East 415 478 37,000  Level Minneapolis Center
Sun 08:30:58 PM 40.4444 -95.7656 87° East 415 478 37,000  Level Minneapolis Center
Sun 08:32:00 PM 40.4500 -95.6161 87° East 412 474 37,000  Level Minneapolis Center
Sun 08:33:02 PM 40.4550 -95.4681 87° East 410 472 37,000  Level Minneapolis Center
Sun 08:34:03 PM 40.4586 -95.3183 88° East 410 472 37,000  Level Minneapolis Center
Sun 08:35:05 PM 40.4631 -95.1644 88° East 415 478 37,000  Level Minneapolis Center
Sun 08:36:06 PM 40.4683 -95.0097 87° East 419 482 37,000  Level Minneapolis Center
Sun 08:37:08 PM 40.4736 -94.8256 88° East 421 484 37,000  Level Minneapolis Center
Sun 08:38:10 PM 40.4775 -94.6708 88° East 423 487 37,000  Level Minneapolis Center
Sun 08:39:11 PM 40.4825 -94.5128 88° East 429 494 37,000  Level Minneapolis Center
Sun 08:40:13 PM 40.4861 -94.3617 88° East 427 491 37,000  Level Minneapolis Center
Sun 08:41:15 PM 40.4892 -94.2069 88° East 427 491 37,000  Level Minneapolis Center
Sun 08:42:16 PM 40.4914 -94.0517 89° East 429 494 37,000  Level Minneapolis Center
Sun 08:43:18 PM 40.4950 -93.8950 88° East 431 496 37,000  Level Minneapolis Center
Sun 08:44:20 PM 40.4969 -93.7072 89° East 432 497 37,000  Level Minneapolis Center
Sun 08:45:21 PM 40.5008 -93.5478 88° East 437 503 37,000  Level Minneapolis Center
Sun 08:46:23 PM 40.5031 -93.3875 89° East 440 506 37,000  Level Minneapolis Center
Sun 08:47:20 PM 40.5042 -93.2242 89° East 447 514 37,000  Level Kansas City Center
Sun 08:48:22 PM 40.5072 -93.0619 89° East 445 512 37,000  Level Kansas City Center
Sun 08:49:23 PM 40.5086 -92.8958 89° East 445 512 37,000  Level Kansas City Center
Sun 08:50:25 PM 40.5094 -92.7397 90° East 446 513 37,000  Level Kansas City Center
Sun 08:51:27 PM 40.5111 -92.5606 89° East 451 519 37,000  Level Kansas City Center
Sun 08:52:29 PM 40.5131 -92.3961 89° East 452 520 37,000  Level Kansas City Center
Sun 08:53:31 PM 40.5136 -92.2364 90° East 453 521 37,000  Level Kansas City Center
Sun 08:54:32 PM 40.5142 -92.0361 90° East 458 527 37,000  Level Kansas City Center
Sun 08:55:34 PM 40.5133 -91.8697 90° East 459 528 37,000  Level Kansas City Center
Sun 08:56:36 PM 40.5139 -91.7011 90° East 462 532 37,000  Level Kansas City Center
Sun 08:57:38 PM 40.5125 -91.5311 91° East 466 536 37,000  Level Kansas City Center
Sun 08:58:49 PM 40.5153 -91.3267 89° East 469 540 37,000  Level Chicago Center
Sun 08:59:51 PM 40.5133 -91.1436 91° East 474 545 37,000  Level Chicago Center
Sun 09:00:53 PM 40.5125 -90.9700 90° East 475 547 37,000  Level Chicago Center
Sun 09:01:56 PM 40.5106 -90.7967 91° East 478 550 37,000  Level Chicago Center
Sun 09:02:58 PM 40.5092 -90.6217 91° East 479 551 37,000  Level Chicago Center
Sun 09:04:00 PM 40.5064 -90.4128 91° East 479 551 37,000  Level Chicago Center
Sun 09:05:02 PM 40.5044 -90.2383 91° East 480 552 37,000  Level Chicago Center
Sun 09:06:04 PM 40.5014 -90.0472 91° East 480 552 37,000  Level Chicago Center
Sun 09:07:06 PM 40.4983 -89.8725 91° East 482 555 37,000  Level Chicago Center
Sun 09:08:08 PM 40.4947 -89.6964 91° East 486 559 37,000  Level Chicago Center
Sun 09:09:10 PM 40.4925 -89.5064 91° East 489 563 37,000  Level Chicago Center
Sun 09:10:12 PM 40.4894 -89.3303 91° East 488 562 37,000  Level Chicago Center
Sun 09:11:14 PM 40.4850 -89.1508 92° East 492 566 37,000  Level Chicago Center
Sun 09:12:16 PM 40.4814 -88.9717 91° East 493 567 37,000  Level Chicago Center
Sun 09:13:18 PM 40.4761 -88.7733 92° East 492 566 37,000  Level Chicago Center
Sun 09:14:20 PM 40.4717 -88.5950 92° East 494 568 37,000  Level Chicago Center
Sun 09:15:22 PM 40.4672 -88.4161 92° East 495 570 37,000  Level Chicago Center
Sun 09:16:24 PM 40.4608 -88.1986 92° East 501 577 37,000  Level Chicago Center
Sun 09:17:26 PM 40.4556 -88.0183 92° East 501 577 37,000  Level Chicago Center
Sun 09:18:28 PM 40.4503 -87.8369 92° East 503 579 37,000  Level Chicago Center
Sun 09:19:30 PM 40.4439 -87.6539 93° East 505 581 37,000  Level Chicago Center
Sun 09:20:31 PM 40.4364 -87.4442 93° East 505 581 37,000  Level Chicago Center
Sun 09:21:33 PM 40.4286 -87.2581 93° East 510 587 37,000  Level Chicago Center
Sun 09:22:35 PM 40.4200 -87.0728 93° East 511 588 37,000  Level Chicago Center
Sun 09:23:37 PM 40.4131 -86.8853 93° East 514 592 37,000  Level Chicago Center
Sun 09:24:39 PM 40.4047 -86.6972 93° East 516 594 37,000  Level Chicago Center
Sun 09:25:40 PM 40.3956 -86.5103 94° East 515 593 37,000  Level Chicago Center
Sun 09:26:42 PM 40.3697 -86.3269 100° East 514 592 37,000  Level Chicago Center
Sun 09:27:44 PM 40.3408 -86.1064 100° East 509 586 37,000  Level Chicago Center
Sun 09:28:46 PM 40.3147 -85.9206 100° East 516 594 37,000  Level Chicago Center
Sun 09:29:48 PM 40.2889 -85.7342 100° East 519 597 37,000  Level Chicago Center
Sun 09:30:49 PM 40.2628 -85.5464 100° East 522 601 37,000  Level Chicago Center
Sun 09:31:45 PM 40.2342 -85.3564 101° East 524 603 37,000  Level Indianapolis Center
Sun 09:32:46 PM 40.2056 -85.1686 101° East 526 605 37,000  Level Indianapolis Center
Sun 09:33:48 PM 40.1786 -84.9792 100° East 531 611 37,000  Level Indianapolis Center
Sun 09:34:49 PM 40.1522 -84.7986 101° East 531 611 37,000  Level Indianapolis Center
Sun 09:35:50 PM 40.1228 -84.6072 101° East 531 611 37,000 -49 Level Indianapolis Center
Sun 09:36:51 PM 40.0939 -84.4158 101° East 533 613 36,900  Descending Indianapolis Center
Sun 09:37:52 PM 40.0647 -84.2244 101° East 533 613 37,000 49 Climbing Indianapolis Center
Sun 09:38:54 PM 40.0347 -84.0336 102° East 532 612 37,000  Level Indianapolis Center
Sun 09:39:55 PM 40.0050 -83.8425 101° East 532 612 37,000 -49 Level Indianapolis Center
Sun 09:40:56 PM 39.9742 -83.6525 102° East 530 610 36,900  Descending Indianapolis Center
Sun 09:41:57 PM 39.9431 -83.4581 102° East 530 610 37,000 49 Climbing Indianapolis Center
Sun 09:42:58 PM 39.9122 -83.2647 102° East 529 609 37,000  Level Indianapolis Center
Sun 09:44:00 PM 39.8808 -83.0742 102° East 529 609 37,000  Level Indianapolis Center
Sun 09:45:01 PM 39.8494 -82.8856 102° East 529 609 37,000 -49 Level Indianapolis Center
Sun 09:46:02 PM 39.8181 -82.6975 102° East 528 608 36,900 -49 Descending Indianapolis Center
Sun 09:47:03 PM 39.7867 -82.5092 102° East 528 608 36,900 49 Level Indianapolis Center
Sun 09:48:05 PM 39.7542 -82.3219 103° East 527 606 37,000  Climbing Indianapolis Center
Sun 09:49:06 PM 39.7208 -82.1344 103° East 526 605 36,900  Descending Indianapolis Center
Sun 09:50:07 PM 39.6839 -81.9183 102° East 529 609 37,000 49 Climbing Indianapolis Center
Sun 09:51:08 PM 39.6503 -81.7328 103° East 527 606 37,000  Level Indianapolis Center
Sun 09:52:09 PM 39.6169 -81.5456 103° East 529 609 37,000  Level Indianapolis Center
Sun 09:53:10 PM 39.5833 -81.3600 103° East 525 604 37,000  Level Indianapolis Center
Sun 09:53:46 PM 39.5689 -81.2617 101° East 527 606 37,000  Level Cleveland Center
Sun 09:54:46 PM 39.5344 -81.0783 104° East 527 606 37,000  Level Cleveland Center
Sun 09:55:13 PM 39.5150 -80.9875 105° East 528 608 37,000  Level Indianapolis Center
Sun 09:56:14 PM 39.4817 -80.8011 103° East 528 608 37,000  Level Indianapolis Center
Sun 09:57:15 PM 39.4453 -80.6175 104° East 527 606 37,000  Level Indianapolis Center
Sun 09:57:46 PM 39.4292 -80.5078 101° East 527 606 37,000  Level Cleveland Center
Sun 09:59:17 PM 39.3772 -80.2475 104° East 527 606 37,000 -711 Level Indianapolis Center
Sun 10:00:18 PM 39.3400 -80.0628 105° East 529 609 35,200 -2,508 Descending Indianapolis Center
Sun 10:01:19 PM 39.3047 -79.8756 104° East 532 612 31,900 -2,611 Descending Indianapolis Center
Sun 10:02:29 PM 39.2850 -79.6433 96° East 537 618 29,500 -1,832 Descending Washington Center
Sun 10:03:30 PM 39.2686 -79.4414 96° East 564 649 27,900 -1,627 Descending Washington Center
Sun 10:04:27 PM 39.2461 -79.2286 98° East 557 641 26,300 -1,576 Descending Washington Center
Sun 10:05:28 PM 39.2325 -79.0564 96° East 521 600 24,800 -1,525 Descending Washington Center
Sun 10:06:29 PM 39.2186 -78.8842 96° East 497 572 23,200 -1,736 Descending Washington Center
Sun 10:07:29 PM 39.2019 -78.7253 98° East 476 548 21,300 -1,884 Descending Washington Center
Sun 10:08:30 PM 39.1850 -78.5719 98° East 446 513 19,400 -1,835 Descending Washington Center
Sun 10:09:30 PM 39.1700 -78.4189 97° East 433 498 17,600 -1,613 Descending Washington Center
Sun 10:10:29 PM 39.1419 -78.2786 104° East 415 478 16,200 -1,412 Descending Washington Center
Sun 10:11:29 PM 39.1094 -78.1436 107° East 401 461 14,800 -1,350 Descending Washington Center
Sun 10:12:29 PM 39.0747 -78.0114 109° East 401 461 13,500 -1,289 Descending Washington Center
Sun 10:13:30 PM 39.0417 -77.8792 108° East 389 448 12,200 -1,210 Descending Washington Center
Sun 10:14:28 PM 39.0106 -77.7608 109° East 361 415 11,100 -1,059 Descending Washington Center
Sun 10:15:29 PM 38.9853 -77.6611 108° East 333 383 10,100 -1,050 Descending Washington Center
Sun 10:16:28 PM 38.9517 -77.5456 110° East 326 375 9,000 -1,104 Descending Washington Center
Sun 10:17:34 PM 38.9000 -77.4333 121° Southeast 309 356 7,800 -1,190 Descending Potomac TRACON
Sun 10:18:34 PM 38.8667 -77.3333 113° Southeast 303 349 6,500 -900 Descending Potomac TRACON
Sun 10:19:34 PM 38.8167 -77.2500 128° Southeast 300 345 6,000 -450 Descending Potomac TRACON
Sun 10:20:34 PM 38.7833 -77.1500 113° Southeast 282 325 5,600 -650 Descending Potomac TRACON
Sun 10:21:34 PM 38.7333 -77.1167 153° Southeast 240 276 4,700 -1,150 Descending Potomac TRACON
Sun 10:22:34 PM 38.7000 -77.0500 123° Southeast 208 239 3,300 -1,350 Descending Potomac TRACON
Sun 10:23:34 PM 38.7500 -77.0333 15° North 170 196 2,000 -1,150 Descending Potomac TRACON
Sun 10:24:34 PM 38.8000 -77.0333 360° North 154 177 1,000 -1,000 Descending Potomac TRACON
Sun 10:26:00 PM 38.8500 -77.0333 North  Level FlightAware Approximate
Sun 10:33:00 PM 38.8519 -77.0377 North  Level Estimated
Sun 10:34:00 PM 38.8500 -77.0333 North  Level FlightAware Approximate
Sun 10:35:00 PM 38.8519 -77.0377 North  Level Estimated

Login

Don't have an account? Register now (free) for customized features, flight alerts, and more!